createdAt,value
2023-02-18T00:01:12.944Z,32.57
2023-02-18T00:03:41.766Z,24.13
2023-02-18T00:06:18.259Z,29.57
2023-02-18T00:08:47.484Z,32.93
2023-02-18T00:11:16.205Z,33.57
2023-02-18T00:13:46.705Z,33.93
2023-02-18T00:16:17.114Z,30.23
2023-02-18T00:18:44.627Z,30.07
2023-02-18T00:21:12.155Z,31.07
2023-02-18T00:23:41.983Z,33.70
2023-02-18T00:26:13.888Z,30.80
2023-02-18T00:28:42.298Z,31.73
2023-02-18T00:31:12.991Z,30.20
2023-02-18T00:33:41.387Z,30.27
2023-02-18T00:36:13.459Z,30.10
2023-02-18T00:38:48.478Z,30.00
2023-02-18T00:41:17.015Z,30.07
2023-02-18T00:43:45.143Z,28.83
2023-02-18T00:46:13.258Z,31.37
2023-02-18T00:48:41.450Z,32.07
2023-02-18T00:51:09.559Z,32.53
2023-02-18T00:53:37.641Z,31.63
2023-02-18T00:56:06.415Z,33.57
2023-02-18T00:58:35.298Z,31.67
2023-02-18T01:01:05.780Z,30.03
2023-02-18T01:03:34.922Z,31.75
2023-02-18T01:06:02.541Z,33.37
2023-02-18T01:08:30.074Z,34.47
2023-02-18T01:10:59.244Z,30.67
2023-02-18T01:13:29.937Z,29.97
2023-02-18T01:15:58.823Z,31.85
2023-02-18T01:18:29.268Z,31.37
2023-02-18T01:20:57.584Z,31.70
2023-02-18T01:23:25.214Z,30.47
2023-02-18T01:25:52.882Z,30.23
2023-02-18T01:28:21.790Z,30.77
2023-02-18T01:30:51.294Z,30.67
2023-02-18T01:33:20.138Z,28.27
2023-02-18T01:35:48.205Z,29.87
2023-02-18T01:38:16.107Z,27.17
2023-02-18T01:40:52.063Z,29.90
2023-02-18T01:43:24.589Z,29.80
2023-02-18T01:46:03.624Z,32.10
2023-02-18T01:49:04.293Z,30.63
2023-02-18T01:51:50.733Z,30.33
2023-02-18T01:54:27.308Z,29.67
2023-02-18T01:57:07.874Z,31.37
2023-02-18T01:59:39.636Z,33.50
2023-02-18T02:02:13.252Z,30.13
2023-02-18T02:04:41.724Z,28.33
2023-02-18T02:07:12.419Z,28.90
2023-02-18T02:09:41.909Z,32.70
2023-02-18T02:12:30.581Z,30.97
2023-02-18T02:15:16.885Z,33.43
2023-02-18T02:18:15.242Z,34.07
2023-02-18T02:21:23.815Z,32.60
2023-02-18T02:24:09.639Z,32.80
2023-02-18T02:27:08.840Z,36.90
2023-02-18T02:29:58.924Z,30.70
2023-02-18T02:32:47.836Z,29.13
2023-02-18T02:35:24.765Z,28.63
2023-02-18T02:38:02.265Z,32.30
2023-02-18T02:40:55.510Z,31.10
2023-02-18T02:43:51.795Z,31.67
2023-02-18T02:46:24.567Z,32.10
2023-02-18T02:49:14.126Z,32.83
2023-02-18T02:51:48.407Z,33.17
2023-02-18T02:54:24.545Z,30.80
2023-02-18T02:57:25.311Z,35.53
2023-02-18T02:59:59.546Z,33.67
2023-02-18T03:02:51.662Z,34.23
2023-02-18T03:05:34.889Z,27.52
2023-02-18T03:08:33.422Z,37.27
2023-02-18T03:11:05.672Z,39.93
2023-02-18T03:13:51.816Z,41.22
2023-02-18T03:16:56.574Z,38.90
2023-02-18T03:19:24.103Z,36.97
2023-02-18T03:22:17.381Z,35.80
2023-02-18T03:24:48.962Z,39.83
2023-02-18T03:27:33.105Z,30.37
2023-02-18T03:30:15.850Z,39.60
2023-02-18T03:32:46.466Z,37.70
2023-02-18T03:35:17.444Z,35.43
2023-02-18T03:37:51.653Z,38.33
2023-02-18T03:40:19.608Z,42.10
2023-02-18T03:42:47.135Z,37.97
2023-02-18T03:45:14.686Z,44.83
2023-02-18T03:47:42.291Z,54.30
2023-02-18T03:50:10.136Z,46.17
2023-02-18T03:52:37.604Z,46.00
2023-02-18T03:55:05.829Z,45.00
2023-02-18T03:57:33.466Z,43.07
2023-02-18T04:00:01.033Z,45.07
2023-02-18T04:02:30.955Z,44.20
2023-02-18T04:04:58.553Z,42.53
2023-02-18T04:07:26.303Z,36.43
2023-02-18T04:09:54.034Z,44.73
2023-02-18T04:12:23.276Z,47.30
2023-02-18T04:14:51.869Z,46.37
2023-02-18T04:17:19.399Z,48.73
2023-02-18T04:19:47.043Z,46.43
2023-02-18T04:22:14.529Z,42.77
2023-02-18T04:24:42.235Z,40.60
2023-02-18T04:27:09.876Z,41.77
2023-02-18T04:29:37.689Z,42.40
2023-02-18T04:32:05.398Z,42.33
2023-02-18T04:34:32.947Z,44.33
2023-02-18T04:37:00.744Z,45.30
2023-02-18T04:39:28.219Z,34.23
2023-02-18T04:41:55.772Z,42.63
2023-02-18T04:44:23.340Z,39.70
2023-02-18T04:46:50.927Z,34.87
2023-02-18T04:49:18.522Z,38.27
2023-02-18T04:51:46.017Z,37.60
2023-02-18T04:54:13.561Z,39.40
2023-02-18T04:56:41.231Z,30.20
2023-02-18T04:59:08.711Z,32.43
2023-02-18T05:01:36.411Z,33.23
2023-02-18T05:04:04.302Z,34.43
2023-02-18T05:06:31.978Z,34.63
2023-02-18T05:08:59.534Z,30.90
2023-02-18T05:11:27.039Z,32.13
2023-02-18T05:13:54.682Z,25.30
2023-02-18T05:16:22.247Z,33.50
2023-02-18T05:18:49.722Z,38.37
2023-02-18T05:21:17.375Z,32.93
2023-02-18T05:23:44.939Z,33.87
2023-02-18T05:26:12.497Z,34.10
2023-02-18T05:28:40.084Z,37.53
2023-02-18T05:31:07.676Z,32.37
2023-02-18T05:33:35.377Z,35.87
2023-02-18T05:36:03.552Z,44.20
2023-02-18T05:38:31.487Z,33.13
2023-02-18T05:40:59.041Z,28.67
2023-02-18T05:43:26.740Z,30.63
2023-02-18T05:45:54.281Z,32.37
2023-02-18T05:48:21.901Z,29.90
2023-02-18T05:50:49.461Z,37.20
2023-02-18T05:53:17.756Z,31.00
2023-02-18T05:55:45.280Z,30.30
2023-02-18T05:58:13.893Z,30.03
2023-02-18T06:00:41.567Z,30.73
2023-02-18T06:03:09.251Z,33.77
2023-02-18T06:05:36.995Z,33.30
2023-02-18T06:08:04.776Z,31.27
2023-02-18T06:10:32.287Z,35.70
2023-02-18T06:13:02.182Z,31.27
2023-02-18T06:15:29.663Z,31.47
2023-02-18T06:17:58.190Z,34.47
2023-02-18T06:20:25.891Z,31.13
2023-02-18T06:22:53.539Z,28.80
2023-02-18T06:25:21.388Z,27.40
2023-02-18T06:27:49.018Z,25.90
2023-02-18T06:30:16.612Z,23.97
2023-02-18T06:32:44.300Z,23.67
2023-02-18T06:35:11.836Z,20.10
2023-02-18T06:37:39.455Z,19.73
2023-02-18T06:40:07.566Z,21.03
2023-02-18T06:42:35.052Z,22.77
2023-02-18T06:45:02.638Z,22.20
2023-02-18T06:47:30.984Z,23.60
2023-02-18T06:49:58.538Z,22.90
2023-02-18T06:52:26.086Z,21.13
2023-02-18T06:54:53.598Z,17.23
2023-02-18T06:57:21.112Z,18.03
2023-02-18T06:59:48.623Z,16.77
2023-02-18T07:02:16.313Z,14.93
2023-02-18T07:04:45.857Z,16.80
2023-02-18T07:07:13.347Z,15.77
2023-02-18T07:09:40.913Z,12.93
2023-02-18T07:12:08.251Z,13.73
2023-02-18T07:14:35.497Z,13.57
2023-02-18T07:17:03.090Z,12.33
2023-02-18T07:19:30.254Z,11.77
2023-02-18T07:21:57.958Z,16.43
2023-02-18T07:24:25.160Z,15.17
2023-02-18T07:26:52.424Z,13.77
2023-02-18T07:29:19.699Z,12.77
2023-02-18T07:31:46.873Z,11.43
2023-02-18T07:34:14.128Z,10.67
2023-02-18T07:36:41.390Z,10.07
2023-02-18T07:39:08.505Z,11.97
2023-02-18T07:41:35.693Z,10.73
2023-02-18T07:44:02.982Z,10.80
2023-02-18T07:46:30.092Z,10.63
2023-02-18T07:48:58.570Z,13.13
2023-02-18T07:51:25.722Z,10.73
2023-02-18T07:53:52.803Z,11.40
2023-02-18T07:56:19.991Z,11.90
2023-02-18T07:58:47.074Z,12.60
2023-02-18T08:01:15.879Z,9.50
2023-02-18T08:03:43.623Z,12.10
2023-02-18T08:06:25.469Z,8.93
2023-02-18T08:08:52.551Z,11.53
2023-02-18T08:11:19.977Z,9.73
2023-02-18T08:13:49.036Z,7.47
2023-02-18T08:16:19.287Z,8.73
2023-02-18T08:18:48.050Z,9.60
2023-02-18T08:21:16.367Z,9.10
2023-02-18T08:23:43.926Z,10.17
2023-02-18T08:26:11.457Z,7.00
2023-02-18T08:28:38.606Z,9.17
2023-02-18T08:31:06.002Z,9.13
2023-02-18T08:33:33.346Z,7.87
2023-02-18T08:36:00.592Z,9.93
2023-02-18T08:38:27.679Z,9.77
2023-02-18T08:41:03.201Z,11.33
2023-02-18T08:43:30.342Z,10.67
2023-02-18T08:45:59.213Z,10.87
2023-02-18T08:48:27.647Z,10.53
2023-02-18T08:50:54.793Z,9.47
2023-02-18T08:53:22.636Z,8.73
2023-02-18T08:55:49.786Z,9.80
2023-02-18T08:58:17.568Z,9.73
2023-02-18T09:00:46.021Z,12.60
2023-02-18T09:03:14.542Z,11.17
2023-02-18T09:05:41.999Z,9.48
2023-02-18T09:08:09.428Z,9.75
2023-02-18T09:10:36.606Z,9.20
2023-02-18T09:13:03.728Z,7.43
2023-02-18T09:15:32.425Z,9.57
2023-02-18T09:18:00.048Z,9.93
2023-02-18T09:20:28.050Z,11.02
2023-02-18T09:22:55.347Z,10.43
2023-02-18T09:25:22.962Z,9.18
2023-02-18T09:27:50.418Z,9.63
2023-02-18T09:30:17.759Z,11.27
2023-02-18T09:32:44.891Z,11.18
2023-02-18T09:35:12.046Z,11.52
2023-02-18T09:37:40.089Z,12.50
2023-02-18T09:40:15.548Z,11.15
2023-02-18T09:42:42.924Z,14.35
2023-02-18T09:45:13.817Z,13.32
2023-02-18T09:47:44.499Z,15.88
2023-02-18T09:50:33.670Z,11.65
2023-02-18T09:53:03.353Z,12.63
2023-02-18T09:55:36.511Z,13.65
2023-02-18T09:58:08.233Z,17.50
2023-02-18T10:00:45.273Z,12.77
2023-02-18T10:03:23.874Z,12.95
2023-02-18T10:06:08.208Z,12.70
2023-02-18T10:08:39.931Z,9.60
2023-02-18T10:11:35.321Z,11.27
2023-02-18T10:14:04.320Z,11.70
2023-02-18T10:16:31.648Z,11.05
2023-02-18T10:19:04.304Z,13.20
2023-02-18T10:21:36.285Z,9.77
2023-02-18T10:24:38.999Z,11.27
2023-02-18T10:27:09.168Z,9.57
2023-02-18T10:29:36.776Z,10.20
2023-02-18T10:32:33.461Z,13.20
2023-02-18T10:35:17.681Z,10.38
2023-02-18T10:38:06.921Z,10.88
2023-02-18T10:40:52.246Z,10.90
2023-02-18T10:43:25.244Z,10.35
2023-02-18T10:48:22.712Z,12.10
2023-02-18T10:50:50.372Z,12.93
2023-02-18T10:53:37.598Z,11.73
2023-02-18T10:56:07.238Z,10.35
2023-02-18T10:58:35.904Z,10.75
2023-02-18T11:01:20.778Z,11.27
2023-02-18T11:04:07.155Z,11.35
2023-02-18T11:06:38.509Z,27.30
2023-02-18T11:09:06.973Z,11.18
2023-02-18T11:11:40.535Z,8.68
2023-02-18T11:14:13.738Z,9.93
2023-02-18T11:16:46.448Z,9.20
2023-02-18T11:19:35.078Z,8.95
2023-02-18T11:22:29.700Z,8.30
2023-02-18T11:24:59.953Z,10.05
2023-02-18T11:27:44.552Z,10.57
2023-02-18T11:30:22.810Z,8.18
2023-02-18T11:32:52.863Z,11.68
2023-02-18T11:35:24.263Z,10.15
2023-02-18T11:37:52.168Z,9.02
2023-02-18T11:40:37.593Z,10.27
2023-02-18T11:43:14.024Z,10.45
2023-02-18T11:45:42.009Z,9.52
2023-02-18T11:48:19.596Z,12.25
2023-02-18T11:50:52.547Z,10.57
2023-02-18T11:53:35.297Z,8.60
2023-02-18T11:56:17.583Z,9.60
2023-02-18T11:58:47.529Z,9.63
2023-02-18T12:01:45.601Z,8.52
2023-02-18T12:04:17.087Z,10.20
2023-02-18T12:06:52.698Z,10.05
2023-02-18T12:09:22.815Z,8.15
2023-02-18T12:11:59.859Z,10.10
2023-02-18T12:14:27.727Z,11.15
2023-02-18T12:17:13.447Z,8.85
2023-02-18T12:20:08.395Z,7.88
2023-02-18T12:22:56.648Z,9.30
2023-02-18T12:25:46.820Z,9.65
2023-02-18T12:28:23.479Z,9.77
2023-02-18T12:31:17.929Z,8.65
2023-02-18T12:33:59.208Z,10.82
2023-02-18T12:37:11.587Z,11.02
2023-02-18T12:39:57.138Z,10.05
2023-02-18T12:42:35.906Z,8.85
2023-02-18T12:45:31.313Z,10.10
2023-02-18T12:48:26.444Z,8.45
2023-02-18T12:51:35.126Z,11.10
2023-02-18T12:54:14.503Z,9.45
2023-02-18T12:57:05.598Z,10.63
2023-02-18T12:59:51.532Z,9.82
2023-02-18T13:02:27.908Z,11.95
2023-02-18T13:05:11.016Z,9.30
2023-02-18T13:10:43.587Z,9.07
2023-02-18T13:13:23.800Z,8.35
2023-02-18T13:16:03.348Z,10.80
2023-02-18T13:18:41.148Z,9.73
2023-02-18T13:21:12.650Z,10.00
2023-02-18T13:23:52.280Z,11.15
2023-02-18T13:26:21.528Z,10.90
2023-02-18T13:29:18.629Z,9.93
2023-02-18T13:32:16.660Z,10.55
2023-02-18T13:34:48.065Z,7.97
2023-02-18T13:37:17.971Z,12.18
2023-02-18T13:39:52.952Z,10.60
2023-02-18T13:42:31.054Z,12.55
2023-02-18T13:44:58.204Z,9.48
2023-02-18T13:47:52.359Z,14.50
2023-02-18T13:50:23.280Z,10.07
2023-02-18T13:52:52.589Z,9.88
2023-02-18T13:55:23.273Z,8.03
2023-02-18T13:57:55.561Z,9.50
2023-02-18T14:00:26.193Z,8.82
2023-02-18T14:02:59.855Z,8.83
2023-02-18T14:05:41.128Z,9.33
2023-02-18T14:08:29.790Z,9.30
2023-02-18T14:11:11.978Z,8.63
2023-02-18T14:13:54.145Z,12.05
2023-02-18T14:16:21.988Z,11.00
2023-02-18T14:18:59.366Z,8.33
2023-02-18T14:21:38.661Z,11.37
2023-02-18T14:24:09.588Z,13.03
2023-02-18T14:26:40.845Z,11.33
2023-02-18T14:29:22.738Z,10.83
2023-02-18T14:31:57.792Z,9.90
2023-02-18T14:34:30.236Z,10.20
2023-02-18T14:37:21.990Z,10.88
2023-02-18T14:40:14.981Z,11.27
2023-02-18T14:43:00.994Z,7.95
2023-02-18T14:45:52.015Z,11.50
2023-02-18T14:48:29.448Z,9.03
2023-02-18T14:51:00.299Z,7.50
2023-02-18T14:53:28.635Z,9.30
2023-02-18T14:56:02.076Z,10.27
2023-02-18T14:58:42.140Z,7.53
2023-02-18T15:01:29.919Z,9.50
2023-02-18T15:03:57.543Z,11.23
2023-02-18T15:06:30.735Z,9.47
2023-02-18T15:08:59.491Z,8.83
2023-02-18T15:11:39.783Z,7.93
2023-02-18T15:14:18.977Z,8.53
2023-02-18T15:16:47.534Z,8.10
2023-02-18T15:19:21.198Z,10.43
2023-02-18T15:21:50.504Z,9.87
2023-02-18T15:24:32.531Z,10.13
2023-02-18T15:27:24.123Z,10.50
2023-02-18T15:29:56.539Z,7.20
2023-02-18T15:32:29.241Z,9.43
2023-02-18T15:35:02.113Z,8.43
2023-02-18T15:37:32.068Z,9.37
2023-02-18T15:39:59.238Z,7.00
2023-02-18T15:42:33.088Z,9.87
2023-02-18T15:45:16.333Z,6.70
2023-02-18T15:47:51.707Z,8.30
2023-02-18T15:50:22.908Z,7.70
2023-02-18T15:52:51.877Z,7.63
2023-02-18T15:55:37.185Z,7.17
2023-02-18T15:58:09.704Z,8.37
2023-02-18T16:00:50.068Z,8.05
2023-02-18T16:03:26.732Z,8.90
2023-02-18T16:06:20.535Z,10.80
2023-02-18T16:09:04.034Z,9.03
2023-02-18T16:11:39.321Z,6.40
2023-02-18T16:14:06.882Z,7.07
2023-02-18T16:16:39.630Z,10.37
2023-02-18T16:19:06.926Z,7.47
2023-02-18T16:21:40.027Z,11.13
2023-02-18T16:24:28.518Z,11.43
2023-02-18T16:27:00.443Z,9.47
2023-02-18T16:29:41.191Z,7.57
2023-02-18T16:32:08.438Z,11.13
2023-02-18T16:34:36.200Z,10.20
2023-02-18T16:37:22.840Z,9.83
2023-02-18T16:39:54.978Z,8.93
2023-02-18T16:42:22.449Z,8.88
2023-02-18T16:44:50.829Z,6.53
2023-02-18T16:47:19.752Z,9.37
2023-02-18T16:49:49.758Z,9.97
2023-02-18T16:52:18.722Z,9.27
2023-02-18T16:54:48.405Z,9.77
2023-02-18T16:57:15.684Z,8.33
2023-02-18T16:59:42.956Z,9.77
2023-02-18T17:02:18.835Z,8.83
2023-02-18T17:04:46.287Z,9.37
2023-02-18T17:07:13.502Z,8.00
2023-02-18T17:09:40.671Z,7.80
2023-02-18T17:12:07.839Z,10.60
2023-02-18T17:14:35.071Z,11.83
2023-02-18T17:17:02.462Z,8.87
2023-02-18T17:19:29.592Z,9.20
2023-02-18T17:21:56.692Z,10.20
2023-02-18T17:24:23.930Z,7.57
2023-02-18T17:26:51.265Z,6.93
2023-02-18T17:29:22.081Z,7.50
2023-02-18T17:31:52.690Z,8.80
2023-02-18T17:34:32.769Z,6.53
2023-02-18T17:37:00.333Z,9.30
2023-02-18T17:39:29.715Z,8.60
2023-02-18T17:41:57.407Z,7.40
2023-02-18T17:44:26.371Z,9.17
2023-02-18T17:46:55.041Z,11.07
2023-02-18T17:49:23.325Z,9.70
2023-02-18T17:51:52.342Z,8.30
2023-02-18T17:54:28.186Z,9.38
2023-02-18T17:56:58.513Z,10.77
2023-02-18T17:59:30.098Z,10.80
2023-02-18T18:02:00.314Z,10.10
2023-02-18T18:04:27.968Z,10.37
2023-02-18T18:06:55.741Z,12.47
2023-02-18T18:09:23.342Z,10.47
2023-02-18T18:11:51.107Z,11.47
2023-02-18T18:14:18.619Z,10.20
2023-02-18T18:16:46.320Z,12.80
2023-02-18T18:19:13.842Z,13.63
2023-02-18T18:21:41.353Z,11.00
2023-02-18T18:24:12.473Z,12.23
2023-02-18T18:26:40.097Z,11.47
2023-02-18T18:29:07.631Z,11.30
2023-02-18T18:31:37.128Z,11.27
2023-02-18T18:34:04.641Z,9.43
2023-02-18T18:36:32.119Z,12.27
2023-02-18T18:38:59.707Z,7.50
2023-02-18T18:41:27.179Z,10.53
2023-02-18T18:43:54.748Z,10.63
2023-02-18T18:46:22.400Z,13.43
2023-02-18T18:48:50.029Z,12.47
2023-02-18T18:51:27.800Z,11.03
2023-02-18T18:53:55.891Z,10.37
2023-02-18T18:56:23.773Z,12.27
2023-02-18T18:58:51.643Z,11.40
2023-02-18T19:01:23.371Z,10.60
2023-02-18T19:03:51.413Z,12.60
2023-02-18T19:06:19.054Z,11.50
2023-02-18T19:08:48.062Z,11.30
2023-02-18T19:11:17.038Z,10.67
2023-02-18T19:13:46.014Z,11.27
2023-02-18T19:16:20.919Z,9.93
2023-02-18T19:18:49.139Z,13.53
2023-02-18T19:21:17.178Z,11.10
2023-02-18T19:23:45.371Z,11.60
2023-02-18T19:26:14.904Z,11.03
2023-02-18T19:28:42.454Z,10.23
2023-02-18T19:31:10.892Z,9.23
2023-02-18T19:33:39.593Z,10.57
2023-02-18T19:36:09.240Z,11.07
2023-02-18T19:38:37.283Z,8.00
2023-02-18T19:41:13.421Z,13.60
2023-02-18T19:43:43.012Z,7.17
2023-02-18T19:46:16.193Z,10.23
2023-02-18T19:48:44.035Z,10.70
2023-02-18T19:51:12.088Z,12.60
2023-02-18T19:53:39.831Z,10.43
2023-02-18T19:56:08.377Z,9.33
2023-02-18T19:58:37.099Z,12.53
2023-02-18T20:01:04.992Z,12.47
2023-02-18T20:03:32.665Z,12.23
2023-02-18T20:06:00.222Z,11.43
2023-02-18T20:08:27.723Z,9.73
2023-02-18T20:10:59.289Z,9.77
2023-02-18T20:13:27.429Z,15.37
2023-02-18T20:15:55.444Z,12.30
2023-02-18T20:18:23.015Z,11.77
2023-02-18T20:20:51.582Z,10.83
2023-02-18T20:23:19.191Z,14.37
2023-02-18T20:25:47.910Z,12.87
2023-02-18T20:28:16.051Z,11.60
2023-02-18T20:30:44.418Z,12.23
2023-02-18T20:33:12.018Z,13.50
2023-02-18T20:35:39.709Z,14.07
2023-02-18T20:38:07.283Z,10.80
2023-02-18T20:40:37.091Z,12.33
2023-02-18T20:43:04.646Z,13.30
2023-02-18T20:45:32.923Z,13.87
2023-02-18T20:48:00.528Z,14.17
2023-02-18T20:50:28.223Z,14.57
2023-02-18T20:52:55.807Z,14.47
2023-02-18T20:55:24.341Z,13.00
2023-02-18T20:57:51.890Z,14.47
2023-02-18T21:00:19.515Z,13.53
2023-02-18T21:02:47.194Z,13.93
2023-02-18T21:05:14.929Z,13.43
2023-02-18T21:07:42.646Z,15.93
2023-02-18T21:10:10.308Z,12.60
2023-02-18T21:12:37.805Z,12.87
2023-02-18T21:15:05.565Z,15.80
2023-02-18T21:17:33.215Z,18.40
2023-02-18T21:20:01.041Z,14.57
2023-02-18T21:22:29.250Z,14.07
2023-02-18T21:24:56.916Z,19.97
2023-02-18T21:27:24.506Z,12.17
2023-02-18T21:29:52.105Z,14.50
2023-02-18T21:32:19.697Z,15.27
2023-02-18T21:34:47.330Z,12.87
2023-02-18T21:37:14.927Z,15.37
2023-02-18T21:39:42.567Z,13.43
2023-02-18T21:42:10.802Z,13.07
2023-02-18T21:44:42.594Z,13.07
2023-02-18T21:47:12.192Z,14.05
2023-02-18T21:49:39.785Z,13.83
2023-02-18T21:52:10.192Z,14.47
2023-02-18T21:54:44.726Z,15.20
2023-02-18T21:57:15.516Z,14.83
2023-02-18T21:59:46.484Z,14.57
2023-02-18T22:02:28.787Z,12.73
2023-02-18T22:04:56.727Z,16.05
2023-02-18T22:07:27.008Z,12.77
2023-02-18T22:09:54.997Z,14.97
2023-02-18T22:12:23.968Z,13.97
2023-02-18T22:14:52.249Z,11.50
2023-02-18T22:17:21.878Z,12.60
2023-02-18T22:19:49.490Z,18.63
2023-02-18T22:22:17.616Z,14.10
2023-02-18T22:24:45.097Z,13.87
2023-02-18T22:27:12.750Z,15.33
2023-02-18T22:29:40.450Z,13.07
2023-02-18T22:32:07.976Z,13.60
2023-02-18T22:34:36.143Z,13.93
2023-02-18T22:37:03.734Z,12.57
2023-02-18T22:39:31.508Z,12.27
2023-02-18T22:41:59.057Z,13.43
2023-02-18T22:44:27.602Z,15.57
2023-02-18T22:46:56.818Z,13.10
2023-02-18T22:49:25.200Z,11.30
2023-02-18T22:51:54.570Z,13.57
2023-02-18T22:54:22.624Z,13.47
2023-02-18T22:56:51.177Z,13.53
2023-02-18T22:59:19.659Z,14.33
2023-02-18T23:01:53.186Z,12.50
2023-02-18T23:04:21.738Z,12.17
2023-02-18T23:06:50.350Z,13.03
2023-02-18T23:09:24.783Z,13.70
2023-02-18T23:11:58.416Z,14.37
2023-02-18T23:14:28.497Z,15.67
2023-02-18T23:17:18.108Z,16.03
2023-02-18T23:19:50.784Z,13.63
2023-02-18T23:24:49.759Z,14.17
2023-02-18T23:27:17.534Z,14.57
2023-02-18T23:29:45.378Z,15.00
2023-02-18T23:32:13.348Z,14.30
2023-02-18T23:34:41.097Z,13.73
2023-02-18T23:37:08.667Z,14.80
2023-02-18T23:39:36.221Z,13.57
2023-02-18T23:42:03.982Z,12.57
2023-02-18T23:44:31.552Z,13.37
2023-02-18T23:47:00.494Z,14.73
2023-02-18T23:49:29.063Z,14.73
2023-02-18T23:51:57.831Z,15.70
2023-02-18T23:54:25.712Z,15.13
2023-02-18T23:56:53.406Z,13.93
2023-02-18T23:59:20.892Z,13.73
